sensor_id;sensor_type;location;lat;lon;timestamp;P1;durP1;ratioP1;P2;durP2;ratioP2
22812;SDS011;11573;51.334;3.244;2023-04-06T00:01:11;35.83;;;22.50;;
22812;SDS011;11573;51.334;3.244;2023-04-06T00:03:37;40.50;;;25.40;;
22812;SDS011;11573;51.334;3.244;2023-04-06T00:06:04;40.50;;;25.58;;
22812;SDS011;11573;51.334;3.244;2023-04-06T00:08:32;38.65;;;24.48;;
22812;SDS011;11573;51.334;3.244;2023-04-06T00:10:59;41.63;;;26.40;;
22812;SDS011;11573;51.334;3.244;2023-04-06T00:13:27;41.05;;;26.27;;
22812;SDS011;11573;51.334;3.244;2023-04-06T00:15:53;45.53;;;26.10;;
22812;SDS011;11573;51.334;3.244;2023-04-06T00:18:20;42.25;;;26.80;;
22812;SDS011;11573;51.334;3.244;2023-04-06T00:20:48;43.70;;;27.10;;
22812;SDS011;11573;51.334;3.244;2023-04-06T00:23:17;41.60;;;27.15;;
22812;SDS011;11573;51.334;3.244;2023-04-06T00:25:44;41.05;;;26.48;;
22812;SDS011;11573;51.334;3.244;2023-04-06T00:28:11;40.97;;;27.38;;
22812;SDS011;11573;51.334;3.244;2023-04-06T00:30:38;43.78;;;27.58;;
22812;SDS011;11573;51.334;3.244;2023-04-06T00:33:06;42.72;;;26.63;;
22812;SDS011;11573;51.334;3.244;2023-04-06T00:35:33;46.63;;;27.75;;
22812;SDS011;11573;51.334;3.244;2023-04-06T00:38:00;46.70;;;28.48;;
22812;SDS011;11573;51.334;3.244;2023-04-06T00:40:27;46.22;;;29.23;;
22812;SDS011;11573;51.334;3.244;2023-04-06T00:42:54;46.40;;;28.25;;
22812;SDS011;11573;51.334;3.244;2023-04-06T00:45:21;45.45;;;27.98;;
22812;SDS011;11573;51.334;3.244;2023-04-06T00:47:48;47.97;;;29.73;;
22812;SDS011;11573;51.334;3.244;2023-04-06T00:50:16;44.85;;;29.05;;
22812;SDS011;11573;51.334;3.244;2023-04-06T00:52:43;45.92;;;30.35;;
22812;SDS011;11573;51.334;3.244;2023-04-06T00:55:10;55.58;;;30.40;;
22812;SDS011;11573;51.334;3.244;2023-04-06T00:57:41;54.47;;;31.48;;
22812;SDS011;11573;51.334;3.244;2023-04-06T01:00:09;56.28;;;30.92;;
22812;SDS011;11573;51.334;3.244;2023-04-06T01:02:38;52.22;;;31.27;;
22812;SDS011;11573;51.334;3.244;2023-04-06T01:05:07;60.10;;;32.10;;
22812;SDS011;11573;51.334;3.244;2023-04-06T01:07:45;55.30;;;31.02;;
22812;SDS011;11573;51.334;3.244;2023-04-06T01:10:24;50.37;;;30.23;;
22812;SDS011;11573;51.334;3.244;2023-04-06T01:12:58;54.63;;;30.55;;
22812;SDS011;11573;51.334;3.244;2023-04-06T01:15:58;56.13;;;31.25;;
22812;SDS011;11573;51.334;3.244;2023-04-06T01:18:31;57.33;;;32.05;;
22812;SDS011;11573;51.334;3.244;2023-04-06T01:21:15;56.47;;;31.75;;
22812;SDS011;11573;51.334;3.244;2023-04-06T01:24:12;47.72;;;28.17;;
22812;SDS011;11573;51.334;3.244;2023-04-06T01:27:17;48.13;;;27.88;;
22812;SDS011;11573;51.334;3.244;2023-04-06T01:30:07;47.38;;;26.85;;
22812;SDS011;11573;51.334;3.244;2023-04-06T01:33:00;47.45;;;26.90;;
22812;SDS011;11573;51.334;3.244;2023-04-06T01:35:55;49.53;;;27.17;;
22812;SDS011;11573;51.334;3.244;2023-04-06T01:38:22;45.85;;;27.58;;
22812;SDS011;11573;51.334;3.244;2023-04-06T01:40:49;42.83;;;26.08;;
22812;SDS011;11573;51.334;3.244;2023-04-06T01:43:19;44.55;;;25.95;;
22812;SDS011;11573;51.334;3.244;2023-04-06T01:46:01;44.60;;;25.95;;
22812;SDS011;11573;51.334;3.244;2023-04-06T01:48:33;39.25;;;24.75;;
22812;SDS011;11573;51.334;3.244;2023-04-06T01:51:06;39.10;;;24.08;;
22812;SDS011;11573;51.334;3.244;2023-04-06T01:53:42;42.20;;;23.90;;
22812;SDS011;11573;51.334;3.244;2023-04-06T01:56:09;36.45;;;22.45;;
22812;SDS011;11573;51.334;3.244;2023-04-06T01:58:41;43.72;;;23.63;;
22812;SDS011;11573;51.334;3.244;2023-04-06T02:01:10;41.85;;;24.17;;
22812;SDS011;11573;51.334;3.244;2023-04-06T02:03:49;39.05;;;22.20;;
22812;SDS011;11573;51.334;3.244;2023-04-06T02:06:17;43.50;;;24.98;;
22812;SDS011;11573;51.334;3.244;2023-04-06T02:08:44;38.88;;;23.60;;
22812;SDS011;11573;51.334;3.244;2023-04-06T02:11:12;38.08;;;22.80;;
22812;SDS011;11573;51.334;3.244;2023-04-06T02:13:44;37.92;;;22.27;;
22812;SDS011;11573;51.334;3.244;2023-04-06T02:16:11;39.53;;;24.00;;
22812;SDS011;11573;51.334;3.244;2023-04-06T02:18:38;39.50;;;23.45;;
22812;SDS011;11573;51.334;3.244;2023-04-06T02:21:05;38.20;;;23.65;;
22812;SDS011;11573;51.334;3.244;2023-04-06T02:23:31;48.33;;;24.85;;
22812;SDS011;11573;51.334;3.244;2023-04-06T02:25:59;47.38;;;24.80;;
22812;SDS011;11573;51.334;3.244;2023-04-06T02:28:26;40.42;;;24.10;;
22812;SDS011;11573;51.334;3.244;2023-04-06T02:30:53;38.67;;;24.52;;
22812;SDS011;11573;51.334;3.244;2023-04-06T02:33:24;46.72;;;25.40;;
22812;SDS011;11573;51.334;3.244;2023-04-06T02:35:51;42.47;;;24.50;;
22812;SDS011;11573;51.334;3.244;2023-04-06T02:38:18;40.33;;;24.83;;
22812;SDS011;11573;51.334;3.244;2023-04-06T02:40:45;39.13;;;24.02;;
22812;SDS011;11573;51.334;3.244;2023-04-06T02:43:19;40.75;;;24.98;;
22812;SDS011;11573;51.334;3.244;2023-04-06T02:45:50;43.78;;;24.95;;
22812;SDS011;11573;51.334;3.244;2023-04-06T02:48:19;41.45;;;25.67;;
22812;SDS011;11573;51.334;3.244;2023-04-06T02:50:46;43.80;;;25.98;;
22812;SDS011;11573;51.334;3.244;2023-04-06T02:53:14;46.53;;;25.70;;
22812;SDS011;11573;51.334;3.244;2023-04-06T02:55:41;41.28;;;26.85;;
22812;SDS011;11573;51.334;3.244;2023-04-06T02:58:08;39.30;;;26.10;;
22812;SDS011;11573;51.334;3.244;2023-04-06T03:00:42;39.87;;;25.97;;
22812;SDS011;11573;51.334;3.244;2023-04-06T03:03:10;44.97;;;25.88;;
22812;SDS011;11573;51.334;3.244;2023-04-06T03:05:38;48.13;;;27.05;;
22812;SDS011;11573;51.334;3.244;2023-04-06T03:08:06;51.53;;;28.65;;
22812;SDS011;11573;51.334;3.244;2023-04-06T03:10:42;49.45;;;29.10;;
22812;SDS011;11573;51.334;3.244;2023-04-06T03:13:10;46.55;;;26.63;;
22812;SDS011;11573;51.334;3.244;2023-04-06T03:16:04;47.10;;;29.00;;
22812;SDS011;11573;51.334;3.244;2023-04-06T03:18:32;49.72;;;29.60;;
22812;SDS011;11573;51.334;3.244;2023-04-06T03:20:59;53.45;;;29.67;;
22812;SDS011;11573;51.334;3.244;2023-04-06T03:23:35;51.25;;;28.80;;
22812;SDS011;11573;51.334;3.244;2023-04-06T03:26:02;45.88;;;28.58;;
22812;SDS011;11573;51.334;3.244;2023-04-06T03:28:30;45.42;;;29.73;;
22812;SDS011;11573;51.334;3.244;2023-04-06T03:31:01;47.15;;;31.27;;
22812;SDS011;11573;51.334;3.244;2023-04-06T03:33:43;44.83;;;29.55;;
22812;SDS011;11573;51.334;3.244;2023-04-06T03:36:20;49.65;;;31.52;;
22812;SDS011;11573;51.334;3.244;2023-04-06T03:38:47;45.70;;;30.63;;
22812;SDS011;11573;51.334;3.244;2023-04-06T03:41:14;47.92;;;30.35;;
22812;SDS011;11573;51.334;3.244;2023-04-06T03:43:49;52.10;;;33.60;;
22812;SDS011;11573;51.334;3.244;2023-04-06T03:46:17;47.03;;;30.05;;
22812;SDS011;11573;51.334;3.244;2023-04-06T03:48:45;50.95;;;32.30;;
22812;SDS011;11573;51.334;3.244;2023-04-06T03:51:16;45.97;;;29.40;;
22812;SDS011;11573;51.334;3.244;2023-04-06T03:53:43;52.78;;;32.10;;
22812;SDS011;11573;51.334;3.244;2023-04-06T03:56:10;53.08;;;31.40;;
22812;SDS011;11573;51.334;3.244;2023-04-06T03:58:37;48.42;;;31.45;;
22812;SDS011;11573;51.334;3.244;2023-04-06T04:01:04;51.53;;;30.20;;
22812;SDS011;11573;51.334;3.244;2023-04-06T04:03:33;46.63;;;31.90;;
22812;SDS011;11573;51.334;3.244;2023-04-06T04:06:00;53.15;;;30.65;;
22812;SDS011;11573;51.334;3.244;2023-04-06T04:08:27;48.53;;;29.08;;
22812;SDS011;11573;51.334;3.244;2023-04-06T04:10:54;42.05;;;28.48;;
22812;SDS011;11573;51.334;3.244;2023-04-06T04:13:21;48.15;;;30.90;;
22812;SDS011;11573;51.334;3.244;2023-04-06T04:15:50;43.95;;;28.60;;
22812;SDS011;11573;51.334;3.244;2023-04-06T04:18:17;46.88;;;28.08;;
22812;SDS011;11573;51.334;3.244;2023-04-06T04:20:44;49.15;;;30.83;;
22812;SDS011;11573;51.334;3.244;2023-04-06T04:23:12;43.78;;;28.45;;
22812;SDS011;11573;51.334;3.244;2023-04-06T04:25:39;42.60;;;27.00;;
22812;SDS011;11573;51.334;3.244;2023-04-06T04:28:06;41.38;;;26.10;;
22812;SDS011;11573;51.334;3.244;2023-04-06T04:30:35;39.90;;;26.00;;
22812;SDS011;11573;51.334;3.244;2023-04-06T04:33:07;40.33;;;25.48;;
22812;SDS011;11573;51.334;3.244;2023-04-06T04:35:34;38.85;;;23.67;;
22812;SDS011;11573;51.334;3.244;2023-04-06T04:38:02;37.78;;;24.83;;
22812;SDS011;11573;51.334;3.244;2023-04-06T04:40:30;37.28;;;23.02;;
22812;SDS011;11573;51.334;3.244;2023-04-06T04:43:07;36.75;;;23.80;;
22812;SDS011;11573;51.334;3.244;2023-04-06T04:45:34;34.97;;;22.25;;
22812;SDS011;11573;51.334;3.244;2023-04-06T04:48:13;35.53;;;23.52;;
22812;SDS011;11573;51.334;3.244;2023-04-06T04:51:07;31.05;;;18.25;;
22812;SDS011;11573;51.334;3.244;2023-04-06T04:53:57;25.92;;;17.63;;
22812;SDS011;11573;51.334;3.244;2023-04-06T04:56:28;28.30;;;17.13;;
22812;SDS011;11573;51.334;3.244;2023-04-06T04:59:04;19.52;;;13.75;;
22812;SDS011;11573;51.334;3.244;2023-04-06T05:01:35;20.67;;;13.85;;
22812;SDS011;11573;51.334;3.244;2023-04-06T05:04:21;20.50;;;13.05;;
22812;SDS011;11573;51.334;3.244;2023-04-06T05:07:02;18.00;;;11.13;;
22812;SDS011;11573;51.334;3.244;2023-04-06T05:09:34;16.80;;;10.65;;
22812;SDS011;11573;51.334;3.244;2023-04-06T05:12:02;13.43;;;9.77;;
22812;SDS011;11573;51.334;3.244;2023-04-06T05:14:34;13.20;;;9.32;;
22812;SDS011;11573;51.334;3.244;2023-04-06T05:17:04;14.05;;;9.23;;
22812;SDS011;11573;51.334;3.244;2023-04-06T05:19:31;12.75;;;8.88;;
22812;SDS011;11573;51.334;3.244;2023-04-06T05:21:59;14.02;;;8.50;;
22812;SDS011;11573;51.334;3.244;2023-04-06T05:24:26;12.63;;;8.93;;
22812;SDS011;11573;51.334;3.244;2023-04-06T05:26:54;14.40;;;9.50;;
22812;SDS011;11573;51.334;3.244;2023-04-06T05:29:23;14.93;;;8.77;;
22812;SDS011;11573;51.334;3.244;2023-04-06T05:31:50;15.30;;;8.70;;
22812;SDS011;11573;51.334;3.244;2023-04-06T05:34:18;14.38;;;9.23;;
22812;SDS011;11573;51.334;3.244;2023-04-06T05:36:47;10.70;;;7.90;;
22812;SDS011;11573;51.334;3.244;2023-04-06T05:39:17;12.80;;;9.10;;
22812;SDS011;11573;51.334;3.244;2023-04-06T05:41:49;16.65;;;10.05;;
22812;SDS011;11573;51.334;3.244;2023-04-06T05:44:24;15.32;;;10.48;;
22812;SDS011;11573;51.334;3.244;2023-04-06T05:47:01;15.63;;;10.32;;
22812;SDS011;11573;51.334;3.244;2023-04-06T05:49:28;19.52;;;11.43;;
22812;SDS011;11573;51.334;3.244;2023-04-06T05:51:55;18.83;;;12.20;;
22812;SDS011;11573;51.334;3.244;2023-04-06T05:54:22;19.02;;;12.15;;
22812;SDS011;11573;51.334;3.244;2023-04-06T05:56:53;16.20;;;11.45;;
22812;SDS011;11573;51.334;3.244;2023-04-06T05:59:20;19.95;;;12.68;;
22812;SDS011;11573;51.334;3.244;2023-04-06T06:01:47;20.48;;;13.05;;
22812;SDS011;11573;51.334;3.244;2023-04-06T06:04:14;20.10;;;13.50;;
22812;SDS011;11573;51.334;3.244;2023-04-06T06:06:43;19.42;;;13.18;;
22812;SDS011;11573;51.334;3.244;2023-04-06T06:09:18;26.00;;;14.68;;
22812;SDS011;11573;51.334;3.244;2023-04-06T06:11:56;20.85;;;13.73;;
22812;SDS011;11573;51.334;3.244;2023-04-06T06:14:25;18.83;;;13.55;;
22812;SDS011;11573;51.334;3.244;2023-04-06T06:16:55;18.27;;;12.52;;
22812;SDS011;11573;51.334;3.244;2023-04-06T06:19:22;20.83;;;13.18;;
22812;SDS011;11573;51.334;3.244;2023-04-06T06:21:53;18.35;;;12.02;;
22812;SDS011;11573;51.334;3.244;2023-04-06T06:24:20;18.02;;;12.23;;
22812;SDS011;11573;51.334;3.244;2023-04-06T06:26:47;18.33;;;11.68;;
22812;SDS011;11573;51.334;3.244;2023-04-06T06:29:17;14.35;;;10.02;;
22812;SDS011;11573;51.334;3.244;2023-04-06T06:31:44;14.93;;;11.25;;
22812;SDS011;11573;51.334;3.244;2023-04-06T06:34:11;13.93;;;9.43;;
22812;SDS011;11573;51.334;3.244;2023-04-06T06:36:40;12.45;;;9.70;;
22812;SDS011;11573;51.334;3.244;2023-04-06T06:39:11;14.00;;;9.45;;
22812;SDS011;11573;51.334;3.244;2023-04-06T06:41:38;13.43;;;9.10;;
22812;SDS011;11573;51.334;3.244;2023-04-06T06:44:05;15.27;;;9.45;;
22812;SDS011;11573;51.334;3.244;2023-04-06T06:46:34;13.77;;;8.90;;
22812;SDS011;11573;51.334;3.244;2023-04-06T06:49:01;15.30;;;9.73;;
22812;SDS011;11573;51.334;3.244;2023-04-06T06:51:29;14.57;;;9.52;;
22812;SDS011;11573;51.334;3.244;2023-04-06T06:53:56;13.23;;;9.85;;
22812;SDS011;11573;51.334;3.244;2023-04-06T06:56:23;13.98;;;8.85;;
22812;SDS011;11573;51.334;3.244;2023-04-06T06:58:53;10.70;;;8.75;;
22812;SDS011;11573;51.334;3.244;2023-04-06T07:01:21;12.30;;;9.13;;
22812;SDS011;11573;51.334;3.244;2023-04-06T07:03:48;12.95;;;9.13;;
22812;SDS011;11573;51.334;3.244;2023-04-06T07:06:15;14.50;;;9.25;;
22812;SDS011;11573;51.334;3.244;2023-04-06T07:08:42;13.65;;;9.55;;
22812;SDS011;11573;51.334;3.244;2023-04-06T07:11:09;14.27;;;9.02;;
22812;SDS011;11573;51.334;3.244;2023-04-06T07:13:36;12.70;;;9.13;;
22812;SDS011;11573;51.334;3.244;2023-04-06T07:16:03;12.43;;;9.57;;
22812;SDS011;11573;51.334;3.244;2023-04-06T07:18:30;13.23;;;8.95;;
22812;SDS011;11573;51.334;3.244;2023-04-06T07:21:01;11.40;;;9.23;;
22812;SDS011;11573;51.334;3.244;2023-04-06T07:23:28;14.50;;;8.88;;
22812;SDS011;11573;51.334;3.244;2023-04-06T07:25:55;14.18;;;9.55;;
22812;SDS011;11573;51.334;3.244;2023-04-06T07:28:22;13.68;;;9.32;;
22812;SDS011;11573;51.334;3.244;2023-04-06T07:30:49;12.98;;;9.18;;
22812;SDS011;11573;51.334;3.244;2023-04-06T07:33:17;13.20;;;9.27;;
22812;SDS011;11573;51.334;3.244;2023-04-06T07:35:44;12.30;;;9.48;;
22812;SDS011;11573;51.334;3.244;2023-04-06T07:38:12;14.52;;;9.95;;
22812;SDS011;11573;51.334;3.244;2023-04-06T07:40:40;15.95;;;10.07;;
22812;SDS011;11573;51.334;3.244;2023-04-06T07:43:07;18.30;;;9.95;;
22812;SDS011;11573;51.334;3.244;2023-04-06T07:45:34;15.80;;;10.82;;
22812;SDS011;11573;51.334;3.244;2023-04-06T07:48:02;13.90;;;10.00;;
22812;SDS011;11573;51.334;3.244;2023-04-06T07:50:30;18.08;;;11.38;;
22812;SDS011;11573;51.334;3.244;2023-04-06T07:52:58;15.77;;;10.48;;
22812;SDS011;11573;51.334;3.244;2023-04-06T07:55:26;12.77;;;9.73;;
22812;SDS011;11573;51.334;3.244;2023-04-06T07:57:53;19.10;;;11.25;;
22812;SDS011;11573;51.334;3.244;2023-04-06T08:00:20;16.00;;;11.18;;
22812;SDS011;11573;51.334;3.244;2023-04-06T08:02:48;18.52;;;10.63;;
22812;SDS011;11573;51.334;3.244;2023-04-06T08:05:15;14.93;;;10.65;;
22812;SDS011;11573;51.334;3.244;2023-04-06T08:07:42;17.55;;;10.75;;
22812;SDS011;11573;51.334;3.244;2023-04-06T08:10:09;17.27;;;11.80;;
22812;SDS011;11573;51.334;3.244;2023-04-06T08:12:36;17.35;;;11.40;;
22812;SDS011;11573;51.334;3.244;2023-04-06T08:15:04;17.80;;;11.77;;
22812;SDS011;11573;51.334;3.244;2023-04-06T08:17:31;16.92;;;11.90;;
22812;SDS011;11573;51.334;3.244;2023-04-06T08:20:00;19.88;;;13.10;;
22812;SDS011;11573;51.334;3.244;2023-04-06T08:22:29;16.23;;;13.05;;
22812;SDS011;11573;51.334;3.244;2023-04-06T08:24:56;19.88;;;13.88;;
22812;SDS011;11573;51.334;3.244;2023-04-06T08:27:23;18.20;;;12.73;;
22812;SDS011;11573;51.334;3.244;2023-04-06T08:29:50;18.00;;;12.98;;
22812;SDS011;11573;51.334;3.244;2023-04-06T08:32:17;20.42;;;13.60;;
22812;SDS011;11573;51.334;3.244;2023-04-06T08:34:44;22.73;;;15.25;;
22812;SDS011;11573;51.334;3.244;2023-04-06T08:37:11;21.20;;;14.95;;
22812;SDS011;11573;51.334;3.244;2023-04-06T08:39:38;24.83;;;15.15;;
22812;SDS011;11573;51.334;3.244;2023-04-06T08:42:10;22.55;;;15.63;;
22812;SDS011;11573;51.334;3.244;2023-04-06T08:44:49;23.45;;;16.50;;
22812;SDS011;11573;51.334;3.244;2023-04-06T08:47:18;25.45;;;17.05;;
22812;SDS011;11573;51.334;3.244;2023-04-06T08:49:50;29.48;;;17.90;;
22812;SDS011;11573;51.334;3.244;2023-04-06T08:52:19;27.40;;;17.88;;
22812;SDS011;11573;51.334;3.244;2023-04-06T08:54:46;26.40;;;17.30;;
22812;SDS011;11573;51.334;3.244;2023-04-06T08:57:14;27.77;;;19.80;;
22812;SDS011;11573;51.334;3.244;2023-04-06T08:59:42;26.35;;;18.67;;
22812;SDS011;11573;51.334;3.244;2023-04-06T09:02:11;27.65;;;19.15;;
22812;SDS011;11573;51.334;3.244;2023-04-06T09:04:52;28.15;;;19.38;;
22812;SDS011;11573;51.334;3.244;2023-04-06T09:07:21;30.00;;;18.90;;
22812;SDS011;11573;51.334;3.244;2023-04-06T09:09:48;28.77;;;18.67;;
22812;SDS011;11573;51.334;3.244;2023-04-06T09:12:22;29.63;;;19.15;;
22812;SDS011;11573;51.334;3.244;2023-04-06T09:14:54;29.58;;;19.20;;
22812;SDS011;11573;51.334;3.244;2023-04-06T09:17:26;29.80;;;20.23;;
22812;SDS011;11573;51.334;3.244;2023-04-06T09:19:56;28.73;;;19.05;;
22812;SDS011;11573;51.334;3.244;2023-04-06T09:22:23;29.45;;;19.40;;
22812;SDS011;11573;51.334;3.244;2023-04-06T09:24:55;29.90;;;19.95;;
22812;SDS011;11573;51.334;3.244;2023-04-06T09:27:32;26.95;;;20.35;;
22812;SDS011;11573;51.334;3.244;2023-04-06T09:30:08;30.52;;;20.90;;
22812;SDS011;11573;51.334;3.244;2023-04-06T09:32:47;25.90;;;19.85;;
22812;SDS011;11573;51.334;3.244;2023-04-06T09:35:16;29.33;;;20.10;;
22812;SDS011;11573;51.334;3.244;2023-04-06T09:37:46;24.42;;;18.60;;
22812;SDS011;11573;51.334;3.244;2023-04-06T09:40:14;26.23;;;19.17;;
22812;SDS011;11573;51.334;3.244;2023-04-06T09:42:47;30.23;;;19.38;;
22812;SDS011;11573;51.334;3.244;2023-04-06T09:45:19;25.98;;;17.88;;
22812;SDS011;11573;51.334;3.244;2023-04-06T09:47:47;26.05;;;19.92;;
22812;SDS011;11573;51.334;3.244;2023-04-06T09:50:18;27.25;;;19.23;;
22812;SDS011;11573;51.334;3.244;2023-04-06T09:52:50;24.02;;;18.83;;
22812;SDS011;11573;51.334;3.244;2023-04-06T09:55:26;25.35;;;18.65;;
22812;SDS011;11573;51.334;3.244;2023-04-06T09:58:06;27.02;;;20.33;;
22812;SDS011;11573;51.334;3.244;2023-04-06T10:00:51;27.48;;;19.10;;
22812;SDS011;11573;51.334;3.244;2023-04-06T10:03:28;23.35;;;16.63;;
22812;SDS011;11573;51.334;3.244;2023-04-06T10:06:05;22.42;;;17.67;;
22812;SDS011;11573;51.334;3.244;2023-04-06T10:08:37;22.23;;;17.27;;
22812;SDS011;11573;51.334;3.244;2023-04-06T10:11:09;23.25;;;17.65;;
22812;SDS011;11573;51.334;3.244;2023-04-06T10:13:39;20.17;;;15.93;;
22812;SDS011;11573;51.334;3.244;2023-04-06T10:16:06;23.13;;;16.38;;
22812;SDS011;11573;51.334;3.244;2023-04-06T10:18:34;23.23;;;16.83;;
22812;SDS011;11573;51.334;3.244;2023-04-06T10:21:10;23.90;;;16.80;;
22812;SDS011;11573;51.334;3.244;2023-04-06T10:23:43;23.13;;;17.23;;
22812;SDS011;11573;51.334;3.244;2023-04-06T10:26:14;24.42;;;18.63;;
22812;SDS011;11573;51.334;3.244;2023-04-06T10:28:43;22.95;;;17.40;;
22812;SDS011;11573;51.334;3.244;2023-04-06T10:31:11;23.42;;;17.52;;
22812;SDS011;11573;51.334;3.244;2023-04-06T10:33:39;24.13;;;18.90;;
22812;SDS011;11573;51.334;3.244;2023-04-06T10:36:10;23.45;;;18.10;;
22812;SDS011;11573;51.334;3.244;2023-04-06T10:38:42;21.75;;;17.48;;
22812;SDS011;11573;51.334;3.244;2023-04-06T10:41:09;21.63;;;17.80;;
22812;SDS011;11573;51.334;3.244;2023-04-06T10:43:38;20.50;;;16.25;;
22812;SDS011;11573;51.334;3.244;2023-04-06T10:46:07;20.45;;;15.88;;
22812;SDS011;11573;51.334;3.244;2023-04-06T10:48:39;21.42;;;16.98;;
22812;SDS011;11573;51.334;3.244;2023-04-06T10:51:17;19.15;;;16.40;;
22812;SDS011;11573;51.334;3.244;2023-04-06T10:53:47;21.65;;;16.90;;
22812;SDS011;11573;51.334;3.244;2023-04-06T10:56:16;20.10;;;16.35;;
22812;SDS011;11573;51.334;3.244;2023-04-06T10:58:44;19.63;;;15.73;;
22812;SDS011;11573;51.334;3.244;2023-04-06T11:01:19;19.75;;;15.88;;
22812;SDS011;11573;51.334;3.244;2023-04-06T11:03:48;21.73;;;15.68;;
22812;SDS011;11573;51.334;3.244;2023-04-06T11:08:47;16.00;;;14.30;;
22812;SDS011;11573;51.334;3.244;2023-04-06T11:11:15;16.88;;;14.43;;
22812;SDS011;11573;51.334;3.244;2023-04-06T11:13:45;16.25;;;13.90;;
22812;SDS011;11573;51.334;3.244;2023-04-06T11:16:26;17.42;;;14.07;;
22812;SDS011;11573;51.334;3.244;2023-04-06T11:18:56;16.98;;;13.15;;
22812;SDS011;11573;51.334;3.244;2023-04-06T11:26:36;17.83;;;13.70;;
22812;SDS011;11573;51.334;3.244;2023-04-06T11:29:15;16.83;;;14.50;;
22812;SDS011;11573;51.334;3.244;2023-04-06T11:32:00;16.98;;;13.95;;
22812;SDS011;11573;51.334;3.244;2023-04-06T11:34:29;17.10;;;14.03;;
22812;SDS011;11573;51.334;3.244;2023-04-06T11:36:58;14.75;;;13.05;;
22812;SDS011;11573;51.334;3.244;2023-04-06T11:39:27;14.88;;;12.98;;
22812;SDS011;11573;51.334;3.244;2023-04-06T11:41:57;15.20;;;12.38;;
22812;SDS011;11573;51.334;3.244;2023-04-06T11:44:29;14.15;;;12.60;;
22812;SDS011;11573;51.334;3.244;2023-04-06T11:46:58;13.98;;;12.55;;
22812;SDS011;11573;51.334;3.244;2023-04-06T11:49:29;14.55;;;12.05;;
22812;SDS011;11573;51.334;3.244;2023-04-06T11:51:57;14.35;;;11.80;;
22812;SDS011;11573;51.334;3.244;2023-04-06T11:54:32;13.63;;;11.98;;
22812;SDS011;11573;51.334;3.244;2023-04-06T11:57:04;13.88;;;12.25;;
22812;SDS011;11573;51.334;3.244;2023-04-06T11:59:32;14.95;;;12.02;;
22812;SDS011;11573;51.334;3.244;2023-04-06T12:02:01;18.95;;;14.23;;
22812;SDS011;11573;51.334;3.244;2023-04-06T12:04:29;15.48;;;13.73;;
22812;SDS011;11573;51.334;3.244;2023-04-06T12:06:56;15.93;;;13.32;;
22812;SDS011;11573;51.334;3.244;2023-04-06T12:09:23;16.60;;;13.93;;
22812;SDS011;11573;51.334;3.244;2023-04-06T12:11:51;13.95;;;12.45;;
22812;SDS011;11573;51.334;3.244;2023-04-06T12:14:17;16.23;;;12.45;;
22812;SDS011;11573;51.334;3.244;2023-04-06T12:16:44;15.93;;;13.40;;
22812;SDS011;11573;51.334;3.244;2023-04-06T12:19:12;15.73;;;12.93;;
22812;SDS011;11573;51.334;3.244;2023-04-06T12:21:39;14.77;;;12.52;;
22812;SDS011;11573;51.334;3.244;2023-04-06T12:24:06;16.17;;;14.15;;
22812;SDS011;11573;51.334;3.244;2023-04-06T12:26:34;16.67;;;13.27;;
22812;SDS011;11573;51.334;3.244;2023-04-06T12:29:03;15.07;;;13.45;;
22812;SDS011;11573;51.334;3.244;2023-04-06T12:31:36;15.93;;;14.23;;
22812;SDS011;11573;51.334;3.244;2023-04-06T12:34:11;16.42;;;14.32;;
22812;SDS011;11573;51.334;3.244;2023-04-06T12:36:38;17.02;;;14.75;;
22812;SDS011;11573;51.334;3.244;2023-04-06T12:39:05;16.88;;;15.05;;
22812;SDS011;11573;51.334;3.244;2023-04-06T12:41:32;16.70;;;14.95;;
22812;SDS011;11573;51.334;3.244;2023-04-06T12:44:00;16.63;;;14.55;;
22812;SDS011;11573;51.334;3.244;2023-04-06T12:46:28;16.58;;;14.85;;
22812;SDS011;11573;51.334;3.244;2023-04-06T12:48:58;19.83;;;14.93;;
22812;SDS011;11573;51.334;3.244;2023-04-06T12:51:29;16.55;;;13.80;;
22812;SDS011;11573;51.334;3.244;2023-04-06T12:53:57;15.77;;;13.73;;
22812;SDS011;11573;51.334;3.244;2023-04-06T12:56:24;14.77;;;13.27;;
22812;SDS011;11573;51.334;3.244;2023-04-06T12:58:52;16.00;;;14.38;;
22812;SDS011;11573;51.334;3.244;2023-04-06T13:01:19;15.93;;;14.23;;
22812;SDS011;11573;51.334;3.244;2023-04-06T13:03:46;15.68;;;13.38;;
22812;SDS011;11573;51.334;3.244;2023-04-06T13:06:13;15.13;;;13.32;;
22812;SDS011;11573;51.334;3.244;2023-04-06T13:08:41;16.75;;;13.32;;
22812;SDS011;11573;51.334;3.244;2023-04-06T13:11:09;15.65;;;14.05;;
22812;SDS011;11573;51.334;3.244;2023-04-06T13:13:36;16.17;;;13.13;;
22812;SDS011;11573;51.334;3.244;2023-04-06T13:16:05;15.52;;;13.75;;
22812;SDS011;11573;51.334;3.244;2023-04-06T13:18:34;16.15;;;13.07;;
22812;SDS011;11573;51.334;3.244;2023-04-06T13:21:03;14.52;;;12.20;;
22812;SDS011;11573;51.334;3.244;2023-04-06T13:23:30;15.07;;;12.20;;
22812;SDS011;11573;51.334;3.244;2023-04-06T13:26:01;13.32;;;12.02;;
22812;SDS011;11573;51.334;3.244;2023-04-06T13:28:30;14.10;;;11.35;;
22812;SDS011;11573;51.334;3.244;2023-04-06T13:30:58;14.07;;;12.60;;
22812;SDS011;11573;51.334;3.244;2023-04-06T13:33:29;14.18;;;12.65;;
22812;SDS011;11573;51.334;3.244;2023-04-06T13:35:57;14.13;;;12.18;;
22812;SDS011;11573;51.334;3.244;2023-04-06T13:38:24;14.30;;;12.02;;
22812;SDS011;11573;51.334;3.244;2023-04-06T13:40:51;13.73;;;12.02;;
22812;SDS011;11573;51.334;3.244;2023-04-06T13:43:18;15.10;;;12.30;;
22812;SDS011;11573;51.334;3.244;2023-04-06T13:45:50;13.13;;;11.68;;
22812;SDS011;11573;51.334;3.244;2023-04-06T13:48:20;14.18;;;12.50;;
22812;SDS011;11573;51.334;3.244;2023-04-06T13:50:47;13.52;;;12.15;;
22812;SDS011;11573;51.334;3.244;2023-04-06T13:53:14;12.35;;;11.05;;
22812;SDS011;11573;51.334;3.244;2023-04-06T13:55:41;9.40;;;8.50;;
22812;SDS011;11573;51.334;3.244;2023-04-06T13:58:08;8.27;;;7.28;;
22812;SDS011;11573;51.334;3.244;2023-04-06T14:00:36;3.22;;;2.65;;
22812;SDS011;11573;51.334;3.244;2023-04-06T14:03:03;2.53;;;2.33;;
22812;SDS011;11573;51.334;3.244;2023-04-06T14:05:32;2.50;;;2.13;;
22812;SDS011;11573;51.334;3.244;2023-04-06T14:07:59;3.00;;;2.40;;
22812;SDS011;11573;51.334;3.244;2023-04-06T14:10:27;3.22;;;2.30;;
22812;SDS011;11573;51.334;3.244;2023-04-06T14:12:54;6.63;;;3.08;;
22812;SDS011;11573;51.334;3.244;2023-04-06T14:15:22;5.68;;;2.58;;
22812;SDS011;11573;51.334;3.244;2023-04-06T14:17:50;6.50;;;3.17;;
22812;SDS011;11573;51.334;3.244;2023-04-06T14:20:18;10.13;;;3.53;;
22812;SDS011;11573;51.334;3.244;2023-04-06T14:22:45;10.00;;;4.07;;
22812;SDS011;11573;51.334;3.244;2023-04-06T14:25:13;7.38;;;3.80;;
22812;SDS011;11573;51.334;3.244;2023-04-06T14:27:40;7.25;;;3.60;;
22812;SDS011;11573;51.334;3.244;2023-04-06T14:30:07;7.13;;;4.07;;
22812;SDS011;11573;51.334;3.244;2023-04-06T14:32:34;8.90;;;3.60;;
22812;SDS011;11573;51.334;3.244;2023-04-06T14:35:03;11.05;;;3.90;;
22812;SDS011;11573;51.334;3.244;2023-04-06T14:37:34;10.77;;;4.20;;
22812;SDS011;11573;51.334;3.244;2023-04-06T14:40:01;10.18;;;4.50;;
22812;SDS011;11573;51.334;3.244;2023-04-06T14:42:29;7.93;;;4.35;;
22812;SDS011;11573;51.334;3.244;2023-04-06T14:44:56;12.38;;;5.30;;
22812;SDS011;11573;51.334;3.244;2023-04-06T14:47:22;11.73;;;5.30;;